Ilgaz — TCHQ — position and weather

sailwx.info

Track history (hours):
 
Tides and Currents Weather Stations Pressure Air Temp Water Temp Dewpoint Dewpoint Depression Visibility Wind Speed Wind Dir Waves Ship Positions

Ilgaz

Last reported at 2014-Sep-19 05:16 UTC. Time now 2014-Sep-20 18:01 UTC.
Position N 32°55' E 034°42'.

Length 124 m; draft 8 m.

Type: Cargo ship. MMSI: 271000215.

Date/timePositionNaut miles runAvg speedWind from/ knotsBaromVisibWave heightAir tempDewpointWater temp
2014-Sep-19 05:16N 32°55' E 034°42'123 7.8
2014-Sep-18 13:32N 34°15' E 032°49'8 8.1
2014-Sep-18 12:33N 34°21' E 032°42'11 8.4
2014-Sep-18 11:17N 34°28' E 032°33'10 8.5
2014-Sep-18 10:03N 34°36' E 032°25'307 7.9
2014-Sep-16 19:25N 37°11' E 026°58'7 8.5
2014-Sep-16 18:33N 37°17' E 026°53'9 8.6
2014-Sep-16 17:33N 37°25' E 026°48'9 8.7
2014-Sep-16 16:33N 37°32' E 026°41'10 9.3
2014-Sep-16 15:29N 37°40' E 026°34'8 8.5
2014-Sep-16 14:33N 37°47' E 026°30'17 8.7
2014-Sep-16 12:33N 38°02' E 026°20'8 8.5
2014-Sep-16 11:33N 38°10' E 026°15'51 7.2
2014-Sep-16 04:26N 38°59' E 025°57'165 6.8
2014-Sep-15 04:10N 40°53' E 028°33'8 7.9
2014-Sep-15 03:13N 40°55' E 028°43'6 8.3
2014-Sep-15 02:27N 40°56' E 028°51'4 3.6
2014-Sep-15 01:25N 40°58' E 028°55'0 0.0
2014-Sep-15 00:07N 40°58' E 028°55'0 0.0
2014-Sep-14 20:07N 40°58' E 028°55'1 1.4
2014-Sep-14 19:32N 40°58' E 028°56'  
2014-Sep-12 10:21N 44°15' E 035°41'7 8.9
2014-Sep-12 09:33N 44°19' E 035°49'  
Track history (hours):
 
Tides and Currents Weather Stations Pressure Air Temp Water Temp Dewpoint Dewpoint Depression Visibility Wind Speed Wind Dir Waves Ship Positions

Ilgaz

Last reported at 2014-Sep-19 05:16 UTC. Time now 2014-Sep-20 18:01 UTC.
Position N 32°55' E 034°42'.

Length 124 m; draft 8 m.

Type: Cargo ship. MMSI: 271000215.

Date/timePositionNaut miles runAvg speedWind from/ knotsBaromVisibWave heightAir tempDewpointWater temp
2014-Sep-19 05:16N 32°55' E 034°42'123 7.8
2014-Sep-18 13:32N 34°15' E 032°49'8 8.1
2014-Sep-18 12:33N 34°21' E 032°42'11 8.4
2014-Sep-18 11:17N 34°28' E 032°33'10 8.5
2014-Sep-18 10:03N 34°36' E 032°25'307 7.9
2014-Sep-16 19:25N 37°11' E 026°58'7 8.5
2014-Sep-16 18:33N 37°17' E 026°53'9 8.6
2014-Sep-16 17:33N 37°25' E 026°48'9 8.7
2014-Sep-16 16:33N 37°32' E 026°41'10 9.3
2014-Sep-16 15:29N 37°40' E 026°34'8 8.5
2014-Sep-16 14:33N 37°47' E 026°30'17 8.7
2014-Sep-16 12:33N 38°02' E 026°20'8 8.5
2014-Sep-16 11:33N 38°10' E 026°15'51 7.2
2014-Sep-16 04:26N 38°59' E 025°57'165 6.8
2014-Sep-15 04:10N 40°53' E 028°33'8 7.9
2014-Sep-15 03:13N 40°55' E 028°43'6 8.3
2014-Sep-15 02:27N 40°56' E 028°51'4 3.6
2014-Sep-15 01:25N 40°58' E 028°55'0 0.0
2014-Sep-15 00:07N 40°58' E 028°55'0 0.0
2014-Sep-14 20:07N 40°58' E 028°55'1 1.4
2014-Sep-14 19:32N 40°58' E 028°56'  
2014-Sep-12 10:21N 44°15' E 035°41'7 8.9
2014-Sep-12 09:33N 44°19' E 035°49'  

Dump ship's entire track history